Main page
METAR-TAF:

METAR-TAF

Airports :

McGhee Tyson Airport

Knoxville, Iowa, United States

latitude: 41-18N, longitude: 093-07W, elevation: 928 ft

Current weather observation

The report was made 23 minutes ago, at 20:35 UTC
Wind 7 mph from the West/Northwest
Temperature 21°F
Humidity 41%
Pressure 30.74 in. Hg
Visibility: 10 miles
Clear sky

METAR: KOXV 202035Z AUTO 29006KT 10SM CLR M06/M17 A3074 RMK AO2

Time: 14:58 (20:58 UTC)


TAF: missing

Weather observations and forecasts of more than 4000 airports (METAR and TAF reports).

The available stations are represented by yellow and red dots on the map.

Hover mouse over dot to see the name of the station.

Then click to see weather observations and forecasts.

To change the map : click on the green buttons with a black cross to zoom in, on the green button with a dash to zoom out, or on the green arrows for adjacent maps.


METAR-TAF: